sensor_id;sensor_type;location;lat;lon;timestamp;P1;durP1;ratioP1;P2;durP2;ratioP2
38843;SDS011;24596;48.080;8.362;2023-01-29T00:00:08;22.27;;;12.52;;
38843;SDS011;24596;48.080;8.362;2023-01-29T00:02:37;19.35;;;11.15;;
38843;SDS011;24596;48.080;8.362;2023-01-29T00:05:02;19.48;;;10.95;;
38843;SDS011;24596;48.080;8.362;2023-01-29T00:07:28;18.85;;;10.38;;
38843;SDS011;24596;48.080;8.362;2023-01-29T00:09:54;20.30;;;10.70;;
38843;SDS011;24596;48.080;8.362;2023-01-29T00:12:19;19.63;;;10.77;;
38843;SDS011;24596;48.080;8.362;2023-01-29T00:14:44;18.35;;;9.65;;
38843;SDS011;24596;48.080;8.362;2023-01-29T00:17:09;16.70;;;9.30;;
38843;SDS011;24596;48.080;8.362;2023-01-29T00:19:35;20.38;;;9.07;;
38843;SDS011;24596;48.080;8.362;2023-01-29T00:22:00;15.70;;;8.15;;
38843;SDS011;24596;48.080;8.362;2023-01-29T00:24:25;19.65;;;9.23;;
38843;SDS011;24596;48.080;8.362;2023-01-29T00:26:51;19.02;;;9.20;;
38843;SDS011;24596;48.080;8.362;2023-01-29T00:29:16;16.38;;;8.73;;
38843;SDS011;24596;48.080;8.362;2023-01-29T00:31:43;17.08;;;8.77;;
38843;SDS011;24596;48.080;8.362;2023-01-29T00:34:08;14.45;;;7.80;;
38843;SDS011;24596;48.080;8.362;2023-01-29T00:36:33;12.43;;;7.55;;
38843;SDS011;24596;48.080;8.362;2023-01-29T00:38:59;12.00;;;7.22;;
38843;SDS011;24596;48.080;8.362;2023-01-29T00:41:27;14.73;;;7.63;;
38843;SDS011;24596;48.080;8.362;2023-01-29T00:44:11;11.35;;;6.15;;
38843;SDS011;24596;48.080;8.362;2023-01-29T00:46:55;13.35;;;6.22;;
38843;SDS011;24596;48.080;8.362;2023-01-29T00:49:20;13.77;;;6.13;;
38843;SDS011;24596;48.080;8.362;2023-01-29T00:51:45;15.93;;;6.75;;
38843;SDS011;24596;48.080;8.362;2023-01-29T00:54:33;12.82;;;7.05;;
38843;SDS011;24596;48.080;8.362;2023-01-29T00:56:59;14.38;;;8.10;;
38843;SDS011;24596;48.080;8.362;2023-01-29T00:59:24;13.10;;;7.28;;
38843;SDS011;24596;48.080;8.362;2023-01-29T01:01:49;14.38;;;8.02;;
38843;SDS011;24596;48.080;8.362;2023-01-29T01:04:33;15.43;;;7.82;;
38843;SDS011;24596;48.080;8.362;2023-01-29T01:06:58;17.63;;;8.95;;
38843;SDS011;24596;48.080;8.362;2023-01-29T01:09:24;16.23;;;8.02;;
38843;SDS011;24596;48.080;8.362;2023-01-29T01:12:08;18.17;;;9.57;;
38843;SDS011;24596;48.080;8.362;2023-01-29T01:14:33;16.02;;;9.57;;
38843;SDS011;24596;48.080;8.362;2023-01-29T01:17:00;18.70;;;9.93;;
38843;SDS011;24596;48.080;8.362;2023-01-29T01:19:25;17.48;;;9.32;;
38843;SDS011;24596;48.080;8.362;2023-01-29T01:21:50;20.35;;;9.48;;
38843;SDS011;24596;48.080;8.362;2023-01-29T01:24:16;19.13;;;11.00;;
38843;SDS011;24596;48.080;8.362;2023-01-29T01:26:41;20.90;;;10.38;;
38843;SDS011;24596;48.080;8.362;2023-01-29T01:29:06;20.52;;;10.75;;
38843;SDS011;24596;48.080;8.362;2023-01-29T01:31:31;17.52;;;9.10;;
38843;SDS011;24596;48.080;8.362;2023-01-29T01:33:56;17.63;;;8.50;;
38843;SDS011;24596;48.080;8.362;2023-01-29T01:36:22;18.40;;;9.57;;
38843;SDS011;24596;48.080;8.362;2023-01-29T01:38:47;18.95;;;10.13;;
38843;SDS011;24596;48.080;8.362;2023-01-29T01:41:13;15.88;;;9.25;;
38843;SDS011;24596;48.080;8.362;2023-01-29T01:46:12;17.77;;;9.45;;
38843;SDS011;24596;48.080;8.362;2023-01-29T01:48:38;19.23;;;9.63;;
38843;SDS011;24596;48.080;8.362;2023-01-29T01:51:03;19.65;;;10.07;;
38843;SDS011;24596;48.080;8.362;2023-01-29T01:53:35;26.92;;;12.25;;
38843;SDS011;24596;48.080;8.362;2023-01-29T01:56:03;20.10;;;11.18;;
38843;SDS011;24596;48.080;8.362;2023-01-29T01:58:37;25.98;;;12.60;;
38843;SDS011;24596;48.080;8.362;2023-01-29T02:01:04;31.67;;;15.43;;
38843;SDS011;24596;48.080;8.362;2023-01-29T02:03:31;30.15;;;14.57;;
38843;SDS011;24596;48.080;8.362;2023-01-29T02:06:17;22.58;;;11.88;;
38843;SDS011;24596;48.080;8.362;2023-01-29T02:09:07;21.60;;;11.80;;
38843;SDS011;24596;48.080;8.362;2023-01-29T02:11:53;21.83;;;10.50;;
38843;SDS011;24596;48.080;8.362;2023-01-29T02:14:18;20.38;;;11.25;;
38843;SDS011;24596;48.080;8.362;2023-01-29T02:16:43;19.20;;;11.13;;
38843;SDS011;24596;48.080;8.362;2023-01-29T02:19:10;17.48;;;9.18;;
38843;SDS011;24596;48.080;8.362;2023-01-29T02:21:59;19.05;;;9.23;;
38843;SDS011;24596;48.080;8.362;2023-01-29T02:25:14;16.67;;;9.68;;
38843;SDS011;24596;48.080;8.362;2023-01-29T02:27:15;18.85;;;9.95;;
38843;SDS011;24596;48.080;8.362;2023-01-29T02:37:37;18.35;;;9.20;;
38843;SDS011;24596;48.080;8.362;2023-01-29T02:40:14;20.00;;;8.88;;
38843;SDS011;24596;48.080;8.362;2023-01-29T02:42:56;18.17;;;9.35;;
38843;SDS011;24596;48.080;8.362;2023-01-29T02:48:02;15.52;;;8.88;;
38843;SDS011;24596;48.080;8.362;2023-01-29T02:50:32;18.15;;;10.30;;
38843;SDS011;24596;48.080;8.362;2023-01-29T02:57:52;17.15;;;9.95;;
38843;SDS011;24596;48.080;8.362;2023-01-29T03:00:24;19.35;;;9.80;;
38843;SDS011;24596;48.080;8.362;2023-01-29T03:05:25;18.48;;;10.27;;
38843;SDS011;24596;48.080;8.362;2023-01-29T03:07:52;17.08;;;9.18;;
38843;SDS011;24596;48.080;8.362;2023-01-29T03:10:21;16.42;;;9.43;;
38843;SDS011;24596;48.080;8.362;2023-01-29T03:12:50;17.35;;;8.77;;
38843;SDS011;24596;48.080;8.362;2023-01-29T03:15:17;16.92;;;8.43;;
38843;SDS011;24596;48.080;8.362;2023-01-29T03:18:04;18.95;;;9.82;;
38843;SDS011;24596;48.080;8.362;2023-01-29T03:20:32;14.85;;;8.32;;
38843;SDS011;24596;48.080;8.362;2023-01-29T03:23:03;16.10;;;8.00;;
38843;SDS011;24596;48.080;8.362;2023-01-29T03:25:29;15.13;;;9.00;;
38843;SDS011;24596;48.080;8.362;2023-01-29T03:28:15;15.55;;;8.68;;
38843;SDS011;24596;48.080;8.362;2023-01-29T03:31:01;13.43;;;7.82;;
38843;SDS011;24596;48.080;8.362;2023-01-29T03:36:37;15.18;;;9.10;;
38843;SDS011;24596;48.080;8.362;2023-01-29T03:39:09;14.57;;;8.65;;
38843;SDS011;24596;48.080;8.362;2023-01-29T03:41:39;14.23;;;7.95;;
38843;SDS011;24596;48.080;8.362;2023-01-29T03:44:22;16.25;;;8.00;;
38843;SDS011;24596;48.080;8.362;2023-01-29T03:46:56;14.63;;;7.93;;
38843;SDS011;24596;48.080;8.362;2023-01-29T04:02:18;10.80;;;6.10;;
38843;SDS011;24596;48.080;8.362;2023-01-29T04:04:51;12.73;;;6.53;;
38843;SDS011;24596;48.080;8.362;2023-01-29T04:07:18;10.85;;;6.05;;
38843;SDS011;24596;48.080;8.362;2023-01-29T04:09:53;11.10;;;5.82;;
38843;SDS011;24596;48.080;8.362;2023-01-29T04:12:20;10.00;;;5.22;;
38843;SDS011;24596;48.080;8.362;2023-01-29T04:14:48;9.80;;;4.88;;
38843;SDS011;24596;48.080;8.362;2023-01-29T04:17:17;11.65;;;5.97;;
38843;SDS011;24596;48.080;8.362;2023-01-29T04:19:43;11.18;;;5.68;;
38843;SDS011;24596;48.080;8.362;2023-01-29T04:22:12;10.63;;;5.47;;
38843;SDS011;24596;48.080;8.362;2023-01-29T04:24:39;13.50;;;6.10;;
38843;SDS011;24596;48.080;8.362;2023-01-29T04:27:24;10.25;;;5.53;;
38843;SDS011;24596;48.080;8.362;2023-01-29T04:29:56;10.38;;;5.90;;
38843;SDS011;24596;48.080;8.362;2023-01-29T04:32:35;11.70;;;6.32;;
38843;SDS011;24596;48.080;8.362;2023-01-29T04:35:08;11.43;;;5.65;;
38843;SDS011;24596;48.080;8.362;2023-01-29T04:37:55;11.90;;;5.97;;
38843;SDS011;24596;48.080;8.362;2023-01-29T04:41:12;9.38;;;5.03;;
38843;SDS011;24596;48.080;8.362;2023-01-29T04:43:54;11.25;;;5.38;;
38843;SDS011;24596;48.080;8.362;2023-01-29T04:48:29;10.75;;;5.35;;
38843;SDS011;24596;48.080;8.362;2023-01-29T04:53:44;9.80;;;4.80;;
38843;SDS011;24596;48.080;8.362;2023-01-29T04:56:33;8.95;;;4.95;;
38843;SDS011;24596;48.080;8.362;2023-01-29T04:59:10;9.70;;;4.85;;
38843;SDS011;24596;48.080;8.362;2023-01-29T05:01:36;9.30;;;4.78;;
38843;SDS011;24596;48.080;8.362;2023-01-29T05:04:03;8.77;;;4.40;;
38843;SDS011;24596;48.080;8.362;2023-01-29T05:06:30;9.65;;;5.13;;
38843;SDS011;24596;48.080;8.362;2023-01-29T05:08:55;8.18;;;4.53;;
38843;SDS011;24596;48.080;8.362;2023-01-29T05:11:21;8.45;;;4.18;;
38843;SDS011;24596;48.080;8.362;2023-01-29T05:13:47;8.70;;;4.15;;
38843;SDS011;24596;48.080;8.362;2023-01-29T05:18:40;9.30;;;4.32;;
38843;SDS011;24596;48.080;8.362;2023-01-29T05:21:07;8.30;;;4.60;;
38843;SDS011;24596;48.080;8.362;2023-01-29T05:23:32;9.05;;;4.70;;
38843;SDS011;24596;48.080;8.362;2023-01-29T05:25:58;7.93;;;4.40;;
38843;SDS011;24596;48.080;8.362;2023-01-29T05:28:23;8.55;;;4.47;;
38843;SDS011;24596;48.080;8.362;2023-01-29T05:30:49;8.23;;;4.28;;
38843;SDS011;24596;48.080;8.362;2023-01-29T05:33:16;8.80;;;4.80;;
38843;SDS011;24596;48.080;8.362;2023-01-29T05:35:42;8.35;;;4.10;;
38843;SDS011;24596;48.080;8.362;2023-01-29T05:38:07;8.63;;;4.53;;
38843;SDS011;24596;48.080;8.362;2023-01-29T05:40:33;8.85;;;4.80;;
38843;SDS011;24596;48.080;8.362;2023-01-29T05:42:58;10.07;;;4.72;;
38843;SDS011;24596;48.080;8.362;2023-01-29T05:45:24;7.97;;;4.32;;
38843;SDS011;24596;48.080;8.362;2023-01-29T05:47:49;7.82;;;4.30;;
38843;SDS011;24596;48.080;8.362;2023-01-29T05:50:15;8.65;;;4.60;;
38843;SDS011;24596;48.080;8.362;2023-01-29T05:52:40;8.38;;;4.55;;
38843;SDS011;24596;48.080;8.362;2023-01-29T05:55:06;8.05;;;4.18;;
38843;SDS011;24596;48.080;8.362;2023-01-29T05:57:32;8.43;;;3.90;;
38843;SDS011;24596;48.080;8.362;2023-01-29T05:59:57;7.15;;;3.78;;
38843;SDS011;24596;48.080;8.362;2023-01-29T06:02:22;8.75;;;4.43;;
38843;SDS011;24596;48.080;8.362;2023-01-29T06:04:49;7.50;;;3.85;;
38843;SDS011;24596;48.080;8.362;2023-01-29T06:07:14;8.63;;;4.13;;
38843;SDS011;24596;48.080;8.362;2023-01-29T06:09:40;8.05;;;4.20;;
38843;SDS011;24596;48.080;8.362;2023-01-29T06:12:05;9.57;;;5.32;;
38843;SDS011;24596;48.080;8.362;2023-01-29T06:14:31;8.32;;;4.65;;
38843;SDS011;24596;48.080;8.362;2023-01-29T06:16:57;12.50;;;4.55;;
38843;SDS011;24596;48.080;8.362;2023-01-29T06:19:22;8.32;;;4.63;;
38843;SDS011;24596;48.080;8.362;2023-01-29T06:21:47;10.73;;;5.03;;
38843;SDS011;24596;48.080;8.362;2023-01-29T06:24:13;9.00;;;4.57;;
38843;SDS011;24596;48.080;8.362;2023-01-29T06:26:38;8.38;;;4.60;;
38843;SDS011;24596;48.080;8.362;2023-01-29T06:29:03;8.82;;;5.18;;
38843;SDS011;24596;48.080;8.362;2023-01-29T06:31:29;10.32;;;5.28;;
38843;SDS011;24596;48.080;8.362;2023-01-29T06:33:54;9.40;;;5.07;;
38843;SDS011;24596;48.080;8.362;2023-01-29T06:36:19;8.15;;;4.65;;
38843;SDS011;24596;48.080;8.362;2023-01-29T06:38:45;10.98;;;5.20;;
38843;SDS011;24596;48.080;8.362;2023-01-29T06:41:12;8.27;;;4.47;;
38843;SDS011;24596;48.080;8.362;2023-01-29T06:43:38;8.43;;;3.72;;
38843;SDS011;24596;48.080;8.362;2023-01-29T06:46:05;9.00;;;4.30;;
38843;SDS011;24596;48.080;8.362;2023-01-29T06:48:31;7.03;;;3.65;;
38843;SDS011;24596;48.080;8.362;2023-01-29T06:51:00;6.90;;;3.45;;
38843;SDS011;24596;48.080;8.362;2023-01-29T06:53:25;8.70;;;4.15;;
38843;SDS011;24596;48.080;8.362;2023-01-29T06:55:51;9.50;;;4.13;;
38843;SDS011;24596;48.080;8.362;2023-01-29T06:58:17;8.45;;;3.50;;
38843;SDS011;24596;48.080;8.362;2023-01-29T07:00:42;7.70;;;4.22;;
38843;SDS011;24596;48.080;8.362;2023-01-29T07:03:07;8.07;;;4.25;;
38843;SDS011;24596;48.080;8.362;2023-01-29T07:05:33;8.10;;;3.63;;
38843;SDS011;24596;48.080;8.362;2023-01-29T07:07:58;8.75;;;4.38;;
38843;SDS011;24596;48.080;8.362;2023-01-29T07:10:24;7.95;;;4.15;;
38843;SDS011;24596;48.080;8.362;2023-01-29T07:12:49;7.20;;;3.67;;
38843;SDS011;24596;48.080;8.362;2023-01-29T07:15:14;6.30;;;3.33;;
38843;SDS011;24596;48.080;8.362;2023-01-29T07:17:54;7.90;;;3.85;;
38843;SDS011;24596;48.080;8.362;2023-01-29T07:20:19;7.47;;;3.85;;
38843;SDS011;24596;48.080;8.362;2023-01-29T07:22:45;7.57;;;4.00;;
38843;SDS011;24596;48.080;8.362;2023-01-29T07:25:10;10.57;;;4.40;;
38843;SDS011;24596;48.080;8.362;2023-01-29T07:27:35;10.05;;;4.55;;
38843;SDS011;24596;48.080;8.362;2023-01-29T07:30:01;8.90;;;4.32;;
38843;SDS011;24596;48.080;8.362;2023-01-29T07:32:27;10.00;;;4.35;;
38843;SDS011;24596;48.080;8.362;2023-01-29T07:34:52;8.88;;;4.45;;
38843;SDS011;24596;48.080;8.362;2023-01-29T07:37:17;9.35;;;5.32;;
38843;SDS011;24596;48.080;8.362;2023-01-29T07:39:43;10.07;;;4.90;;
38843;SDS011;24596;48.080;8.362;2023-01-29T07:42:08;9.15;;;4.78;;
38843;SDS011;24596;48.080;8.362;2023-01-29T07:44:34;10.48;;;5.50;;
38843;SDS011;24596;48.080;8.362;2023-01-29T07:46:59;10.98;;;6.03;;
38843;SDS011;24596;48.080;8.362;2023-01-29T07:49:24;10.20;;;5.80;;
38843;SDS011;24596;48.080;8.362;2023-01-29T07:51:49;9.70;;;5.13;;
38843;SDS011;24596;48.080;8.362;2023-01-29T07:54:15;7.70;;;4.60;;
38843;SDS011;24596;48.080;8.362;2023-01-29T07:56:40;7.85;;;3.80;;
38843;SDS011;24596;48.080;8.362;2023-01-29T07:59:05;8.70;;;3.88;;
38843;SDS011;24596;48.080;8.362;2023-01-29T08:01:30;9.10;;;4.47;;
38843;SDS011;24596;48.080;8.362;2023-01-29T08:03:56;9.10;;;5.40;;
38843;SDS011;24596;48.080;8.362;2023-01-29T08:06:21;9.02;;;4.25;;
38843;SDS011;24596;48.080;8.362;2023-01-29T08:08:46;10.85;;;5.55;;
38843;SDS011;24596;48.080;8.362;2023-01-29T08:11:12;10.68;;;5.07;;
38843;SDS011;24596;48.080;8.362;2023-01-29T08:13:37;9.13;;;5.25;;
38843;SDS011;24596;48.080;8.362;2023-01-29T08:16:02;8.57;;;4.80;;
38843;SDS011;24596;48.080;8.362;2023-01-29T08:18:28;8.60;;;4.72;;
38843;SDS011;24596;48.080;8.362;2023-01-29T08:20:59;9.13;;;5.07;;
38843;SDS011;24596;48.080;8.362;2023-01-29T08:23:24;7.93;;;4.15;;
38843;SDS011;24596;48.080;8.362;2023-01-29T08:25:50;7.80;;;3.75;;
38843;SDS011;24596;48.080;8.362;2023-01-29T08:28:15;7.15;;;4.10;;
38843;SDS011;24596;48.080;8.362;2023-01-29T08:30:42;7.38;;;3.67;;
38843;SDS011;24596;48.080;8.362;2023-01-29T08:33:08;6.93;;;3.75;;
38843;SDS011;24596;48.080;8.362;2023-01-29T08:35:33;8.68;;;3.72;;
38843;SDS011;24596;48.080;8.362;2023-01-29T08:37:59;8.57;;;3.90;;
38843;SDS011;24596;48.080;8.362;2023-01-29T08:40:25;7.47;;;3.72;;
38843;SDS011;24596;48.080;8.362;2023-01-29T08:42:59;7.63;;;3.95;;
38843;SDS011;24596;48.080;8.362;2023-01-29T08:45:26;7.70;;;3.88;;
38843;SDS011;24596;48.080;8.362;2023-01-29T08:47:52;7.03;;;3.65;;
38843;SDS011;24596;48.080;8.362;2023-01-29T08:50:17;8.65;;;4.57;;
38843;SDS011;24596;48.080;8.362;2023-01-29T08:52:43;8.52;;;4.22;;
38843;SDS011;24596;48.080;8.362;2023-01-29T08:55:08;8.88;;;4.03;;
38843;SDS011;24596;48.080;8.362;2023-01-29T08:57:34;8.77;;;4.45;;
38843;SDS011;24596;48.080;8.362;2023-01-29T09:00:01;8.30;;;4.45;;
38843;SDS011;24596;48.080;8.362;2023-01-29T09:02:27;7.55;;;4.32;;
38843;SDS011;24596;48.080;8.362;2023-01-29T09:04:52;9.25;;;5.45;;
38843;SDS011;24596;48.080;8.362;2023-01-29T09:07:18;8.40;;;4.50;;
38843;SDS011;24596;48.080;8.362;2023-01-29T09:09:45;8.52;;;4.10;;
38843;SDS011;24596;48.080;8.362;2023-01-29T09:12:11;7.90;;;4.32;;
38843;SDS011;24596;48.080;8.362;2023-01-29T09:14:36;8.45;;;3.65;;
38843;SDS011;24596;48.080;8.362;2023-01-29T09:17:01;6.72;;;3.40;;
38843;SDS011;24596;48.080;8.362;2023-01-29T09:19:26;6.43;;;3.03;;
38843;SDS011;24596;48.080;8.362;2023-01-29T09:21:52;6.95;;;3.78;;
38843;SDS011;24596;48.080;8.362;2023-01-29T09:24:17;7.45;;;3.65;;
38843;SDS011;24596;48.080;8.362;2023-01-29T09:26:42;7.38;;;3.67;;
38843;SDS011;24596;48.080;8.362;2023-01-29T09:29:08;5.82;;;3.10;;
38843;SDS011;24596;48.080;8.362;2023-01-29T09:31:34;8.38;;;3.58;;
38843;SDS011;24596;48.080;8.362;2023-01-29T09:33:59;6.85;;;3.45;;
38843;SDS011;24596;48.080;8.362;2023-01-29T09:36:24;9.75;;;4.70;;
38843;SDS011;24596;48.080;8.362;2023-01-29T09:38:50;6.30;;;3.47;;
38843;SDS011;24596;48.080;8.362;2023-01-29T09:41:40;6.10;;;3.22;;
38843;SDS011;24596;48.080;8.362;2023-01-29T09:44:09;7.15;;;3.50;;
38843;SDS011;24596;48.080;8.362;2023-01-29T09:49:23;7.35;;;3.45;;
38843;SDS011;24596;48.080;8.362;2023-01-29T09:51:48;7.50;;;3.60;;
38843;SDS011;24596;48.080;8.362;2023-01-29T09:54:17;7.75;;;4.10;;
38843;SDS011;24596;48.080;8.362;2023-01-29T09:56:44;6.80;;;3.47;;
38843;SDS011;24596;48.080;8.362;2023-01-29T09:59:10;6.70;;;3.30;;
38843;SDS011;24596;48.080;8.362;2023-01-29T10:12:14;7.65;;;3.95;;
38843;SDS011;24596;48.080;8.362;2023-01-29T10:15:05;6.88;;;3.22;;
38843;SDS011;24596;48.080;8.362;2023-01-29T10:25:15;10.68;;;7.18;;
38843;SDS011;24596;48.080;8.362;2023-01-29T10:27:44;7.35;;;3.47;;
38843;SDS011;24596;48.080;8.362;2023-01-29T10:32:46;7.47;;;3.92;;
38843;SDS011;24596;48.080;8.362;2023-01-29T10:35:19;8.77;;;4.18;;
38843;SDS011;24596;48.080;8.362;2023-01-29T10:37:46;7.35;;;3.85;;
38843;SDS011;24596;48.080;8.362;2023-01-29T10:40:17;6.95;;;3.65;;
38843;SDS011;24596;48.080;8.362;2023-01-29T10:42:44;7.35;;;3.47;;
38843;SDS011;24596;48.080;8.362;2023-01-29T11:00:32;5.68;;;2.60;;
38843;SDS011;24596;48.080;8.362;2023-01-29T11:02:59;23.17;;;11.60;;
38843;SDS011;24596;48.080;8.362;2023-01-29T11:05:36;9.07;;;4.80;;
38843;SDS011;24596;48.080;8.362;2023-01-29T11:08:11;8.20;;;4.88;;
38843;SDS011;24596;48.080;8.362;2023-01-29T11:10:40;5.82;;;2.97;;
38843;SDS011;24596;48.080;8.362;2023-01-29T11:13:07;5.95;;;2.78;;
38843;SDS011;24596;48.080;8.362;2023-01-29T11:15:35;6.18;;;3.22;;
38843;SDS011;24596;48.080;8.362;2023-01-29T11:18:07;5.40;;;2.85;;
38843;SDS011;24596;48.080;8.362;2023-01-29T11:20:43;5.97;;;3.15;;
38843;SDS011;24596;48.080;8.362;2023-01-29T11:23:42;6.18;;;3.58;;
38843;SDS011;24596;48.080;8.362;2023-01-29T11:26:00;6.63;;;3.28;;
38843;SDS011;24596;48.080;8.362;2023-01-29T11:28:42;6.90;;;3.47;;
38843;SDS011;24596;48.080;8.362;2023-01-29T11:33:52;7.05;;;3.70;;
38843;SDS011;24596;48.080;8.362;2023-01-29T11:41:57;5.90;;;2.88;;
38843;SDS011;24596;48.080;8.362;2023-01-29T11:44:28;5.93;;;3.10;;
38843;SDS011;24596;48.080;8.362;2023-01-29T11:46:55;6.43;;;3.55;;
38843;SDS011;24596;48.080;8.362;2023-01-29T11:49:31;6.85;;;3.30;;
38843;SDS011;24596;48.080;8.362;2023-01-29T11:51:58;6.93;;;3.38;;
38843;SDS011;24596;48.080;8.362;2023-01-29T11:54:26;7.80;;;3.35;;
38843;SDS011;24596;48.080;8.362;2023-01-29T11:56:53;6.63;;;3.38;;
38843;SDS011;24596;48.080;8.362;2023-01-29T11:59:41;6.53;;;3.35;;
38843;SDS011;24596;48.080;8.362;2023-01-29T12:04:47;6.63;;;3.40;;
38843;SDS011;24596;48.080;8.362;2023-01-29T12:07:13;6.72;;;3.58;;
38843;SDS011;24596;48.080;8.362;2023-01-29T12:09:40;7.22;;;3.35;;
38843;SDS011;24596;48.080;8.362;2023-01-29T12:12:16;6.68;;;3.65;;
38843;SDS011;24596;48.080;8.362;2023-01-29T12:14:41;6.05;;;3.10;;
38843;SDS011;24596;48.080;8.362;2023-01-29T12:17:15;6.38;;;3.60;;
38843;SDS011;24596;48.080;8.362;2023-01-29T12:19:50;6.97;;;3.45;;
38843;SDS011;24596;48.080;8.362;2023-01-29T12:25:06;6.07;;;3.40;;
38843;SDS011;24596;48.080;8.362;2023-01-29T12:32:29;7.63;;;3.50;;
38843;SDS011;24596;48.080;8.362;2023-01-29T12:35:02;6.97;;;3.63;;
38843;SDS011;24596;48.080;8.362;2023-01-29T12:39:58;7.63;;;3.88;;
38843;SDS011;24596;48.080;8.362;2023-01-29T12:42:24;19.08;;;9.57;;
38843;SDS011;24596;48.080;8.362;2023-01-29T12:45:03;15.70;;;8.70;;
38843;SDS011;24596;48.080;8.362;2023-01-29T12:47:43;29.60;;;16.35;;
38843;SDS011;24596;48.080;8.362;2023-01-29T12:50:26;15.35;;;8.95;;
38843;SDS011;24596;48.080;8.362;2023-01-29T12:52:56;13.02;;;6.68;;
38843;SDS011;24596;48.080;8.362;2023-01-29T12:58:31;10.00;;;5.70;;
38843;SDS011;24596;48.080;8.362;2023-01-29T13:00:42;10.25;;;5.68;;
38843;SDS011;24596;48.080;8.362;2023-01-29T13:05:35;8.50;;;4.30;;
38843;SDS011;24596;48.080;8.362;2023-01-29T13:08:06;7.97;;;4.70;;
38843;SDS011;24596;48.080;8.362;2023-01-29T13:10:37;16.75;;;9.23;;
38843;SDS011;24596;48.080;8.362;2023-01-29T13:15:34;6.72;;;3.80;;
38843;SDS011;24596;48.080;8.362;2023-01-29T13:20:44;29.35;;;19.83;;
38843;SDS011;24596;48.080;8.362;2023-01-29T13:23:21;20.60;;;12.20;;
38843;SDS011;24596;48.080;8.362;2023-01-29T13:25:50;10.48;;;4.28;;
38843;SDS011;24596;48.080;8.362;2023-01-29T13:28:17;10.98;;;7.60;;
38843;SDS011;24596;48.080;8.362;2023-01-29T13:30:43;42.85;;;26.73;;
38843;SDS011;24596;48.080;8.362;2023-01-29T13:33:14;11.73;;;7.47;;
38843;SDS011;24596;48.080;8.362;2023-01-29T13:35:41;8.10;;;3.95;;
38843;SDS011;24596;48.080;8.362;2023-01-29T13:38:19;7.57;;;3.65;;
38843;SDS011;24596;48.080;8.362;2023-01-29T13:40:49;8.30;;;3.00;;
38843;SDS011;24596;48.080;8.362;2023-01-29T13:43:21;8.02;;;3.55;;
38843;SDS011;24596;48.080;8.362;2023-01-29T13:45:47;9.02;;;4.90;;
38843;SDS011;24596;48.080;8.362;2023-01-29T13:48:28;26.95;;;11.55;;
38843;SDS011;24596;48.080;8.362;2023-01-29T13:50:59;17.48;;;10.00;;
38843;SDS011;24596;48.080;8.362;2023-01-29T13:53:30;19.73;;;11.85;;
38843;SDS011;24596;48.080;8.362;2023-01-29T13:56:45;15.77;;;8.90;;
38843;SDS011;24596;48.080;8.362;2023-01-29T14:01:09;7.72;;;4.68;;
38843;SDS011;24596;48.080;8.362;2023-01-29T14:03:44;10.50;;;6.43;;
38843;SDS011;24596;48.080;8.362;2023-01-29T14:06:34;8.68;;;5.13;;
38843;SDS011;24596;48.080;8.362;2023-01-29T14:08:59;11.68;;;7.07;;
38843;SDS011;24596;48.080;8.362;2023-01-29T14:11:32;8.30;;;4.95;;
38843;SDS011;24596;48.080;8.362;2023-01-29T14:13:58;7.78;;;4.22;;
38843;SDS011;24596;48.080;8.362;2023-01-29T14:16:25;7.82;;;3.90;;
38843;SDS011;24596;48.080;8.362;2023-01-29T14:18:53;6.88;;;3.72;;
38843;SDS011;24596;48.080;8.362;2023-01-29T14:21:21;7.72;;;3.78;;
38843;SDS011;24596;48.080;8.362;2023-01-29T14:23:49;7.57;;;4.28;;
38843;SDS011;24596;48.080;8.362;2023-01-29T14:36:44;7.75;;;4.75;;
38843;SDS011;24596;48.080;8.362;2023-01-29T14:40:11;11.13;;;4.93;;
38843;SDS011;24596;48.080;8.362;2023-01-29T14:42:14;12.20;;;7.78;;
38843;SDS011;24596;48.080;8.362;2023-01-29T14:52:20;10.98;;;6.22;;
38843;SDS011;24596;48.080;8.362;2023-01-29T14:54:46;16.15;;;8.85;;
38843;SDS011;24596;48.080;8.362;2023-01-29T14:57:12;14.07;;;7.38;;
38843;SDS011;24596;48.080;8.362;2023-01-29T14:59:49;13.55;;;8.10;;
38843;SDS011;24596;48.080;8.362;2023-01-29T15:02:19;18.08;;;10.13;;
38843;SDS011;24596;48.080;8.362;2023-01-29T15:04:49;16.05;;;8.95;;
38843;SDS011;24596;48.080;8.362;2023-01-29T15:09:41;11.30;;;6.72;;
38843;SDS011;24596;48.080;8.362;2023-01-29T15:20:29;20.20;;;10.45;;
38843;SDS011;24596;48.080;8.362;2023-01-29T15:22:55;14.00;;;8.93;;
38843;SDS011;24596;48.080;8.362;2023-01-29T15:25:21;16.10;;;9.70;;
38843;SDS011;24596;48.080;8.362;2023-01-29T15:27:46;16.10;;;10.30;;
38843;SDS011;24596;48.080;8.362;2023-01-29T15:30:16;18.52;;;10.95;;
38843;SDS011;24596;48.080;8.362;2023-01-29T15:32:42;17.58;;;10.35;;
38843;SDS011;24596;48.080;8.362;2023-01-29T15:37:39;19.45;;;12.02;;
38843;SDS011;24596;48.080;8.362;2023-01-29T15:40:05;17.95;;;10.77;;
38843;SDS011;24596;48.080;8.362;2023-01-29T15:42:46;17.60;;;11.38;;
38843;SDS011;24596;48.080;8.362;2023-01-29T15:47:46;18.10;;;11.13;;
38843;SDS011;24596;48.080;8.362;2023-01-29T15:50:12;20.85;;;12.07;;
38843;SDS011;24596;48.080;8.362;2023-01-29T15:52:38;17.67;;;9.50;;
38843;SDS011;24596;48.080;8.362;2023-01-29T15:55:04;15.80;;;8.90;;
38843;SDS011;24596;48.080;8.362;2023-01-29T15:57:34;17.08;;;9.75;;
38843;SDS011;24596;48.080;8.362;2023-01-29T16:00:01;20.30;;;10.75;;
38843;SDS011;24596;48.080;8.362;2023-01-29T16:05:01;30.08;;;20.55;;
38843;SDS011;24596;48.080;8.362;2023-01-29T16:07:26;24.80;;;14.10;;
38843;SDS011;24596;48.080;8.362;2023-01-29T16:09:53;21.83;;;12.90;;
38843;SDS011;24596;48.080;8.362;2023-01-29T16:12:19;17.70;;;11.63;;
38843;SDS011;24596;48.080;8.362;2023-01-29T16:14:44;22.33;;;11.88;;
38843;SDS011;24596;48.080;8.362;2023-01-29T16:17:20;20.95;;;9.95;;
38843;SDS011;24596;48.080;8.362;2023-01-29T16:19:53;15.20;;;8.50;;
38843;SDS011;24596;48.080;8.362;2023-01-29T16:22:19;20.80;;;9.45;;
38843;SDS011;24596;48.080;8.362;2023-01-29T16:24:44;19.90;;;9.82;;
38843;SDS011;24596;48.080;8.362;2023-01-29T16:27:12;19.55;;;9.57;;
38843;SDS011;24596;48.080;8.362;2023-01-29T16:29:38;15.18;;;8.30;;
38843;SDS011;24596;48.080;8.362;2023-01-29T16:32:03;16.58;;;9.02;;
38843;SDS011;24596;48.080;8.362;2023-01-29T16:34:31;15.27;;;7.90;;
38843;SDS011;24596;48.080;8.362;2023-01-29T16:36:57;15.57;;;7.53;;
38843;SDS011;24596;48.080;8.362;2023-01-29T16:39:43;15.25;;;8.27;;
38843;SDS011;24596;48.080;8.362;2023-01-29T16:45:05;17.33;;;9.55;;
38843;SDS011;24596;48.080;8.362;2023-01-29T16:49:55;15.75;;;9.40;;
38843;SDS011;24596;48.080;8.362;2023-01-29T16:54:46;16.35;;;8.88;;
38843;SDS011;24596;48.080;8.362;2023-01-29T16:57:14;19.05;;;9.65;;
38843;SDS011;24596;48.080;8.362;2023-01-29T16:59:40;15.88;;;8.63;;
38843;SDS011;24596;48.080;8.362;2023-01-29T17:02:25;15.07;;;8.05;;
38843;SDS011;24596;48.080;8.362;2023-01-29T17:04:52;16.30;;;8.68;;
38843;SDS011;24596;48.080;8.362;2023-01-29T17:07:18;15.63;;;8.13;;
38843;SDS011;24596;48.080;8.362;2023-01-29T17:09:49;16.23;;;8.68;;
38843;SDS011;24596;48.080;8.362;2023-01-29T17:12:23;17.48;;;8.63;;
38843;SDS011;24596;48.080;8.362;2023-01-29T17:14:57;19.88;;;9.52;;
38843;SDS011;24596;48.080;8.362;2023-01-29T17:19:54;22.75;;;10.48;;
38843;SDS011;24596;48.080;8.362;2023-01-29T17:22:19;17.17;;;10.10;;
38843;SDS011;24596;48.080;8.362;2023-01-29T17:24:45;16.08;;;9.15;;
38843;SDS011;24596;48.080;8.362;2023-01-29T17:27:12;22.73;;;12.60;;
38843;SDS011;24596;48.080;8.362;2023-01-29T17:29:42;26.52;;;18.75;;
38843;SDS011;24596;48.080;8.362;2023-01-29T17:32:07;24.40;;;11.00;;